Time;durP1;ratioP1;P1;durP2;ratioP2;P2;SDS_P1;SDS_P2;PMS_P1;PMS_P2;Temp;Humidity;BMP_temperature;BMP_pressure;BME280_temperature;BME280_humidity;BME280_pressure;Samples;Min_cycle;Max_cycle;Signal;HPM_P1;HPM_P2
2023/03/07 00:01:50;;;;;;;21.90;18.05;;;;;;;4.20;64.57;98866.38;10449973;28;20062;-68
2023/03/07 00:06:54;;;;;;;22.80;18.40;;;;;;;4.17;64.42;98850.75;10430466;28;20045;-70
2023/03/07 00:11:56;;;;;;;22.25;15.07;;;;;;;4.02;65.38;98841.41;10430838;28;20086;-70
2023/03/07 00:16:57;;;;;;;27.45;18.70;;;;;;;3.99;66.60;98831.09;10433222;28;20115;-69
2023/03/07 00:21:58;;;;;;;27.20;20.17;;;;;;;4.06;67.11;98848.94;10427194;28;20085;-70
2023/03/07 00:27:00;;;;;;;25.83;19.15;;;;;;;4.01;68.16;98845.84;10428725;28;20079;-70
2023/03/07 00:32:01;;;;;;;24.52;18.70;;;;;;;4.04;68.58;98845.59;10430824;28;20063;-69
2023/03/07 00:37:03;;;;;;;25.75;18.73;;;;;;;3.78;70.37;98833.56;10430998;28;20056;-71
2023/03/07 00:42:04;;;;;;;25.60;20.60;;;;;;;3.80;70.52;98816.72;10428711;28;20309;-70
2023/03/07 00:47:06;;;;;;;25.55;19.38;;;;;;;3.75;71.64;98808.31;10429755;28;20052;-69
2023/03/07 00:52:07;;;;;;;28.77;19.90;;;;;;;3.86;72.64;98820.69;10430924;28;20052;-70
2023/03/07 00:57:09;;;;;;;28.45;20.98;;;;;;;3.65;74.10;98807.34;10433299;28;20143;-68
2023/03/07 01:02:10;;;;;;;29.50;21.17;;;;;;;3.56;75.33;98808.88;10432593;28;20424;-71
2023/03/07 01:07:11;;;;;;;26.08;20.23;;;;;;;3.62;75.93;98791.75;10437402;28;20070;-70
2023/03/07 01:12:13;;;;;;;30.50;22.52;;;;;;;3.70;76.11;98784.13;10406126;28;20419;-69
2023/03/07 01:17:14;;;;;;;28.45;20.40;;;;;;;3.66;76.46;98780.91;10429422;28;20063;-69
2023/03/07 01:22:15;;;;;;;29.55;22.88;;;;;;;3.59;77.58;98782.31;10423774;28;20076;-71
2023/03/07 01:27:17;;;;;;;27.30;20.17;;;;;;;3.72;76.90;98774.31;10430190;28;20374;-70
2023/03/07 01:32:19;;;;;;;29.73;21.50;;;;;;;3.66;77.51;98754.59;10428052;28;20129;-71
2023/03/07 01:37:21;;;;;;;30.48;21.90;;;;;;;3.58;78.07;98764.03;10427586;28;20173;-69
2023/03/07 01:42:22;;;;;;;30.42;22.65;;;;;;;3.51;78.92;98768.88;10427514;28;20067;-68
2023/03/07 01:47:24;;;;;;;29.23;22.73;;;;;;;3.48;79.60;98769.13;10427309;28;20449;-69
2023/03/07 01:52:31;;;;;;;29.35;21.33;;;;;;;3.53;79.64;98767.81;10426377;28;20079;-68
2023/03/07 01:57:35;;;;;;;29.92;23.08;;;;;;;3.32;80.58;98743.13;10431863;28;20063;-68
2023/03/07 02:02:40;;;;;;;28.55;22.00;;;;;;;3.42;81.02;98746.72;10427973;28;20175;-68
2023/03/07 02:07:46;;;;;;;29.30;21.23;;;;;;;3.47;80.87;98746.41;10406863;28;20052;-68
2023/03/07 02:12:50;;;;;;;28.35;21.35;;;;;;;3.38;80.90;98721.63;10402004;28;20046;-67
2023/03/07 02:17:52;;;;;;;29.35;21.35;;;;;;;3.31;81.70;98717.78;10424576;28;21652;-69
2023/03/07 02:22:55;;;;;;;27.88;20.17;;;;;;;3.42;81.93;98728.31;10423177;28;20056;-70
2023/03/07 02:27:58;;;;;;;28.33;19.70;;;;;;;3.35;81.51;98711.34;10429013;28;20143;-71
2023/03/07 02:32:59;;;;;;;27.48;20.75;;;;;;;3.42;82.41;98709.06;10434379;28;20134;-69
2023/03/07 02:38:03;;;;;;;31.10;23.42;;;;;;;3.45;82.83;98712.34;10433075;28;20685;-69
2023/03/07 02:43:08;;;;;;;20.77;15.40;;;;;;;3.50;82.69;98701.47;10430310;28;20097;-70
2023/03/07 02:48:09;;;;;;;25.27;19.67;;;;;;;3.43;82.62;98693.19;10434120;28;20060;-69
2023/03/07 02:53:11;;;;;;;24.40;19.85;;;;;;;3.52;82.83;98667.97;10433786;28;20063;-70
2023/03/07 02:58:12;;;;;;;28.05;20.45;;;;;;;3.71;82.20;98684.00;10427195;28;20459;-69
2023/03/07 03:03:13;;;;;;;24.08;19.42;;;;;;;3.78;81.44;98688.81;10429009;28;20044;-69
2023/03/07 03:08:15;;;;;;;24.67;19.50;;;;;;;3.75;81.96;98681.97;10416548;28;20049;-69
2023/03/07 03:13:16;;;;;;;23.17;18.98;;;;;;;3.82;81.94;98685.81;10407560;28;20044;-71
2023/03/07 03:18:17;;;;;;;25.48;18.63;;;;;;;3.71;82.22;98670.03;10431953;28;20049;-69
2023/03/07 03:23:19;;;;;;;24.00;18.58;;;;;;;3.92;82.51;98687.72;10428003;28;20054;-70
2023/03/07 03:28:21;;;;;;;21.70;17.92;;;;;;;3.87;82.39;98662.63;10432978;28;20052;-69
2023/03/07 03:33:23;;;;;;;24.25;19.48;;;;;;;3.88;82.81;98664.28;10431871;28;20227;-69
2023/03/07 03:38:25;;;;;;;22.15;17.52;;;;;;;3.89;82.82;98633.53;10430788;28;20068;-71
2023/03/07 03:43:26;;;;;;;22.23;18.45;;;;;;;3.82;82.77;98629.72;10429034;28;21667;-69
2023/03/07 03:48:28;;;;;;;20.38;16.33;;;;;;;3.84;83.07;98635.69;10429719;28;20063;-70
2023/03/07 03:53:31;;;;;;;18.20;14.05;;;;;;;3.86;82.97;98646.94;10430593;28;20060;-68
2023/03/07 03:58:33;;;;;;;20.05;16.33;;;;;;;3.82;83.22;98641.06;10426471;28;20051;-70
2023/03/07 04:03:38;;;;;;;20.23;15.88;;;;;;;3.81;83.12;98628.03;10428122;28;20051;-72
2023/03/07 04:08:40;;;;;;;17.37;14.00;;;;;;;3.82;82.54;98625.28;10425537;28;21693;-69
2023/03/07 04:13:42;;;;;;;15.75;12.77;;;;;;;3.80;83.11;98614.03;10427151;28;20068;-70
2023/03/07 04:18:43;;;;;;;15.68;13.98;;;;;;;3.91;82.69;98617.63;10413514;28;20055;-70
2023/03/07 04:23:45;;;;;;;16.88;14.07;;;;;;;3.64;82.12;98569.66;10407788;28;20048;-70
2023/03/07 04:28:48;;;;;;;17.63;13.75;;;;;;;3.94;81.78;98612.13;10409036;28;20051;-69
2023/03/07 04:33:50;;;;;;;16.20;13.43;;;;;;;3.82;82.29;98591.06;10429974;28;20822;-70
2023/03/07 04:38:52;;;;;;;15.70;13.52;;;;;;;3.83;82.08;98587.47;10426906;28;20045;-71
2023/03/07 04:43:53;;;;;;;16.40;13.00;;;;;;;3.82;82.05;98577.06;10430493;28;20052;-70
2023/03/07 04:48:54;;;;;;;13.98;12.27;;;;;;;3.79;81.92;98583.41;10429090;28;20143;-72
2023/03/07 04:53:56;;;;;;;15.27;12.75;;;;;;;3.83;82.61;98598.00;10435045;28;20059;-70
2023/03/07 04:58:57;;;;;;;17.80;14.80;;;;;;;3.88;82.17;98598.47;10414260;28;20507;-71
2023/03/07 05:03:59;;;;;;;18.83;14.98;;;;;;;3.77;81.93;98569.53;10427533;28;20068;-69
2023/03/07 05:09:01;;;;;;;17.58;15.02;;;;;;;3.85;81.90;98577.66;10425344;28;20052;-70
2023/03/07 05:14:02;;;;;;;17.77;14.57;;;;;;;3.80;81.24;98561.41;10426118;28;20056;-71
2023/03/07 05:19:04;;;;;;;19.73;15.75;;;;;;;3.97;81.26;98564.47;10429819;28;20488;-70
2023/03/07 05:24:06;;;;;;;18.23;15.70;;;;;;;3.94;81.01;98570.00;10425924;28;20068;-71
2023/03/07 05:29:08;;;;;;;20.95;16.38;;;;;;;3.87;80.75;98549.41;10431857;28;20162;-71
2023/03/07 05:34:14;;;;;;;19.08;15.75;;;;;;;3.79;80.59;98541.28;10430721;28;20056;-70
2023/03/07 05:39:16;;;;;;;18.70;15.00;;;;;;;4.00;80.51;98567.69;10404428;28;20446;-70
2023/03/07 05:44:18;;;;;;;19.27;16.77;;;;;;;4.04;80.13;98570.94;10431996;28;20190;-70
2023/03/07 05:49:20;;;;;;;20.35;15.57;;;;;;;4.08;79.49;98569.69;10412427;28;20060;-70
2023/03/07 05:54:21;;;;;;;20.23;16.95;;;;;;;3.97;79.38;98551.31;10402259;28;20122;-74
2023/03/07 05:59:22;;;;;;;16.92;14.25;;;;;;;4.04;79.13;98560.41;10460992;28;20140;-69
2023/03/07 06:04:24;;;;;;;18.23;15.23;;;;;;;4.00;79.02;98537.91;10435983;28;20134;-70
2023/03/07 06:09:26;;;;;;;16.58;14.60;;;;;;;4.20;78.65;98549.44;10416409;28;20138;-71
2023/03/07 06:14:30;;;;;;;17.05;14.55;;;;;;;4.11;77.86;98551.03;10435416;28;20083;-72
2023/03/07 06:19:32;;;;;;;17.70;14.93;;;;;;;4.22;78.19;98558.06;10418605;28;20136;-70
2023/03/07 06:24:34;;;;;;;18.45;14.85;;;;;;;4.22;77.57;98569.44;10439862;28;20131;-78
2023/03/07 06:29:36;;;;;;;17.67;14.57;;;;;;;4.25;77.21;98542.84;10423085;28;20110;-76
2023/03/07 06:34:37;;;;;;;17.90;14.27;;;;;;;4.34;77.01;98561.47;10445955;28;20570;-75
2023/03/07 06:39:39;;;;;;;16.73;14.52;;;;;;;4.07;76.83;98528.56;10418371;28;20105;-72
2023/03/07 06:44:40;;;;;;;17.67;13.70;;;;;;;4.15;77.10;98586.69;10444683;28;20487;-75
2023/03/07 06:49:44;;;;;;;16.88;13.45;;;;;;;4.14;77.62;98563.94;10443884;28;20063;-73
2023/03/07 06:54:45;;;;;;;21.50;16.00;;;;;;;4.15;78.02;98565.63;10436880;28;20052;-75
2023/03/07 06:59:46;;;;;;;17.92;15.10;;;;;;;4.09;77.88;98547.69;10433938;28;20056;-71
2023/03/07 07:04:48;;;;;;;17.70;14.27;;;;;;;4.15;77.84;98562.97;10435835;28;20222;-72
2023/03/07 07:09:49;;;;;;;16.40;13.10;;;;;;;4.21;77.78;98566.94;10436457;28;20503;-70
2023/03/07 07:14:51;;;;;;;17.20;13.20;;;;;;;4.13;77.85;98554.38;10434880;28;20736;-67
2023/03/07 07:19:52;;;;;;;17.77;13.40;;;;;;;4.30;77.55;98570.63;10428085;28;20052;-71
2023/03/07 07:24:53;;;;;;;15.68;13.43;;;;;;;4.24;76.51;98545.59;10447014;28;20132;-73
2023/03/07 07:29:55;;;;;;;17.90;14.27;;;;;;;4.18;76.97;98560.09;10426865;28;20048;-72
2023/03/07 07:34:56;;;;;;;19.55;14.93;;;;;;;4.25;76.53;98558.66;10433421;28;20367;-72
2023/03/07 07:39:57;;;;;;;18.65;14.93;;;;;;;4.29;76.42;98553.13;10418545;28;20052;-72
2023/03/07 07:44:59;;;;;;;17.05;14.10;;;;;;;4.33;75.85;98562.47;10433257;28;20049;-72
2023/03/07 07:50:00;;;;;;;17.50;13.05;;;;;;;4.38;75.57;98562.91;10433548;28;20226;-71
2023/03/07 07:55:02;;;;;;;16.98;15.13;;;;;;;4.43;75.73;98561.56;10433903;28;20048;-73
2023/03/07 08:00:04;;;;;;;16.13;13.70;;;;;;;4.43;75.13;98566.03;10412175;28;21308;-72
2023/03/07 08:05:08;;;;;;;16.92;13.57;;;;;;;4.52;75.28;98569.66;10429797;28;20045;-75
2023/03/07 08:10:14;;;;;;;17.07;12.93;;;;;;;4.58;74.17;98559.47;10417388;28;20793;-75
2023/03/07 08:15:20;;;;;;;16.65;12.82;;;;;;;4.54;74.33;98547.50;10431979;28;20052;-75
2023/03/07 08:20:24;;;;;;;14.70;12.93;;;;;;;4.63;74.18;98534.56;10430806;28;20189;-74
2023/03/07 08:25:25;;;;;;;15.68;12.82;;;;;;;4.59;73.06;98518.13;10431653;28;20048;-74
2023/03/07 08:30:28;;;;;;;20.60;14.25;;;;;;;4.86;74.56;98535.25;10428099;28;20056;-74
2023/03/07 08:35:30;;;;;;;14.38;11.63;;;;;;;4.86;72.36;98525.53;10417040;28;20135;-73
2023/03/07 08:40:32;;;;;;;15.10;12.57;;;;;;;4.89;70.67;98501.53;10433393;28;20065;-74
2023/03/07 08:45:33;;;;;;;14.50;12.27;;;;;;;5.10;70.63;98513.88;10433869;28;20100;-73
2023/03/07 08:50:35;;;;;;;13.82;11.90;;;;;;;5.36;69.47;98516.06;10429815;28;20053;-74
2023/03/07 08:55:36;;;;;;;15.38;12.02;;;;;;;5.57;69.23;98518.63;10438111;28;20045;-73
2023/03/07 09:00:38;;;;;;;13.30;11.75;;;;;;;5.64;67.29;98499.50;10430680;28;20052;-70
2023/03/07 09:05:40;;;;;;;17.80;11.75;;;;;;;6.06;67.38;98509.03;10444437;28;20083;-74
2023/03/07 09:10:41;;;;;;;13.75;11.60;;;;;;;6.23;64.31;98494.34;10441300;28;20353;-73
2023/03/07 09:15:43;;;;;;;14.23;10.57;;;;;;;6.14;63.28;98496.00;10415739;28;20044;-75
2023/03/07 09:20:44;;;;;;;19.90;9.88;;;;;;;6.42;63.01;98509.34;10431470;28;20055;-73
2023/03/07 09:25:46;;;;;;;14.85;10.65;;;;;;;6.75;61.09;98509.03;10408056;28;20048;-74
2023/03/07 09:30:47;;;;;;;12.48;10.73;;;;;;;6.98;60.23;98499.81;10437358;28;20059;-74
2023/03/07 09:35:48;;;;;;;15.45;9.93;;;;;;;6.86;60.01;98509.72;10441896;28;20052;-72
2023/03/07 09:40:51;;;;;;;11.48;9.13;;;;;;;6.80;59.28;98494.41;10430117;28;20078;-73
2023/03/07 09:46:33;;;;;;;11.85;8.93;;;;;;;7.23;57.86;98497.47;10452679;28;20135;-73
2023/03/07 09:51:40;;;;;;;10.88;8.85;;;;;;;7.12;57.79;98521.50;10428877;28;20055;-72
2023/03/07 09:56:44;;;;;;;12.00;8.73;;;;;;;7.18;57.43;98499.75;10428279;28;20052;-72
2023/03/07 10:01:45;;;;;;;13.45;9.23;;;;;;;7.28;56.39;98489.97;10443799;28;20054;-74
2023/03/07 10:06:53;;;;;;;9.43;8.52;;;;;;;7.38;56.35;98489.91;10451324;28;20048;-74
2023/03/07 10:12:11;;;;;;;9.10;7.85;;;;;;;7.32;56.48;98493.97;10452405;28;20052;-73
2023/03/07 10:17:38;;;;;;;9.57;8.48;;;;;;;6.93;56.54;98448.31;10453384;28;20247;-73
2023/03/07 10:22:52;;;;;;;9.55;8.55;;;;;;;6.87;56.42;98455.00;10460591;28;20048;-73
2023/03/07 10:28:06;;;;;;;10.73;8.43;;;;;;;7.16;56.71;98481.38;10454226;28;20546;-73
2023/03/07 10:33:17;;;;;;;10.73;9.57;;;;;;;7.05;56.70;98473.59;10449079;28;20066;-73
2023/03/07 10:38:44;;;;;;;13.38;8.68;;;;;;;7.12;56.05;98468.56;10444072;28;20063;-74
2023/03/07 10:43:48;;;;;;;11.18;9.85;;;;;;;7.10;56.25;98475.81;10448984;28;20408;-73
2023/03/07 10:48:58;;;;;;;9.50;8.50;;;;;;;7.05;56.03;98479.72;10440404;28;20062;-72
2023/03/07 10:54:00;;;;;;;9.52;8.55;;;;;;;6.98;56.56;98446.91;10439470;28;20599;-73
2023/03/07 10:59:09;;;;;;;9.48;8.48;;;;;;;7.21;55.84;98459.75;10441746;28;20064;-73
2023/03/07 11:04:22;;;;;;;9.82;8.60;;;;;;;7.15;56.16;98442.63;10442068;28;20052;-72
2023/03/07 11:09:34;;;;;;;9.63;7.78;;;;;;;7.25;55.87;98434.63;10440842;28;20062;-68
2023/03/07 11:14:52;;;;;;;10.07;8.32;;;;;;;7.40;54.76;98446.44;10430343;28;20341;-71
2023/03/07 11:19:55;;;;;;;9.27;8.38;;;;;;;7.29;55.69;98428.09;10434714;28;20051;-70
2023/03/07 11:25:12;;;;;;;9.32;8.32;;;;;;;7.41;54.07;98437.47;10434261;28;20048;-71
2023/03/07 11:30:31;;;;;;;8.00;6.45;;;;;;;7.17;52.89;98406.28;10394530;28;20050;-72
2023/03/07 11:36:04;;;;;;;10.38;7.40;;;;;;;7.39;52.28;98418.28;10412834;28;20048;-71
2023/03/07 11:41:28;;;;;;;7.55;6.57;;;;;;;7.36;52.52;98413.28;10435667;28;20076;-71
2023/03/07 11:46:36;;;;;;;10.00;6.60;;;;;;;7.23;51.40;98387.16;10434262;28;20048;-72
2023/03/07 11:52:04;;;;;;;8.25;6.43;;;;;;;7.31;51.97;98402.31;10436636;28;20127;-70
2023/03/07 11:57:49;;;;;;;7.40;6.25;;;;;;;7.31;51.11;98394.38;10450771;28;21146;-71
2023/03/07 12:03:13;;;;;;;10.25;6.75;;;;;;;7.36;51.32;98392.09;10406672;28;20066;-71
2023/03/07 12:08:32;;;;;;;7.97;6.20;;;;;;;7.37;50.90;98380.56;10436115;28;20346;-68
2023/03/07 12:13:58;;;;;;;9.85;6.68;;;;;;;7.41;51.16;98381.91;10437799;28;20909;-72
2023/03/07 12:19:27;;;;;;;10.77;6.65;;;;;;;7.42;51.03;98390.69;10440042;28;20056;-71
2023/03/07 12:24:56;;;;;;;8.25;5.90;;;;;;;7.42;51.53;98380.09;10440180;28;20044;-71
2023/03/07 12:30:22;;;;;;;7.80;6.70;;;;;;;7.56;50.98;98382.22;10453440;28;20049;-72
2023/03/07 12:35:36;;;;;;;7.03;6.32;;;;;;;7.60;50.97;98359.75;10439075;28;20055;-70
2023/03/07 12:40:45;;;;;;;9.50;6.13;;;;;;;7.65;50.70;98372.53;10434442;28;20079;-71
2023/03/07 12:52:18;;;;;;;8.23;6.88;;;;;;;7.65;51.38;98346.06;10420402;23;20718;-70
2023/03/07 12:57:33;;;;;;;7.15;5.80;;;;;;;7.65;50.88;98338.13;10430409;28;20211;-69
2023/03/07 13:02:43;;;;;;;8.13;6.10;;;;;;;7.71;50.98;98331.38;10446597;28;20061;-65
2023/03/07 13:07:46;;;;;;;7.75;6.70;;;;;;;7.72;51.04;98331.22;10451660;28;20222;-66
2023/03/07 13:12:50;;;;;;;7.70;5.97;;;;;;;7.84;52.44;98328.38;10431429;28;20052;-70
2023/03/07 13:17:52;;;;;;;12.88;7.07;;;;;;;7.97;51.13;98331.41;10488051;28;20331;-70
2023/03/07 13:22:57;;;;;;;7.90;6.53;;;;;;;7.87;51.58;98325.41;10461856;28;20143;-71
2023/03/07 13:27:59;;;;;;;;;;;;;;;7.87;51.35;98330.69;10461815;28;21015;-70
2023/03/07 13:33:05;;;;;;;7.38;6.47;;;;;;;7.88;51.30;98332.34;10457406;28;20569;-72
2023/03/07 13:38:22;;;;;;;10.55;7.57;;;;;;;7.84;51.81;98323.88;10449441;28;20044;-71
2023/03/07 13:43:24;;;;;;;7.50;6.43;;;;;;;7.83;51.76;98332.81;10450338;28;20048;-71
2023/03/07 13:48:28;;;;;;;11.55;7.97;;;;;;;7.86;52.30;98331.69;10447140;28;20511;-72
2023/03/07 13:53:38;;;;;;;8.50;7.25;;;;;;;7.89;52.48;98323.41;10447498;28;20124;-70
2023/03/07 13:58:59;;;;;;;13.05;7.50;;;;;;;7.82;53.27;98325.88;10445581;28;20131;-69
2023/03/07 14:04:11;;;;;;;12.52;7.10;;;;;;;7.95;52.86;98344.00;10433818;28;20108;-71
2023/03/07 14:09:25;;;;;;;9.25;6.97;;;;;;;8.00;53.33;98331.13;10477804;28;20059;-72
2023/03/07 14:14:58;;;;;;;12.45;8.15;;;;;;;8.03;53.31;98322.88;10489149;28;20179;-70
2023/03/07 14:20:12;;;;;;;14.32;8.77;;;;;;;8.30;52.82;98342.25;10488293;28;20052;-69
2023/03/07 14:25:22;;;;;;;8.50;6.78;;;;;;;8.27;53.07;98332.81;10488936;28;20045;-71
2023/03/07 14:30:29;;;;;;;8.70;6.60;;;;;;;8.04;53.76;98331.66;10462231;28;20124;-70
2023/03/07 14:35:33;;;;;;;8.85;6.03;;;;;;;8.00;53.85;98340.88;10457566;28;20151;-69
2023/03/07 14:40:45;;;;;;;9.80;7.65;;;;;;;7.92;54.07;98349.59;10439920;28;20339;-68
2023/03/07 14:45:55;;;;;;;11.02;8.30;;;;;;;7.61;54.87;98339.38;10454548;28;20260;-71
2023/03/07 14:51:04;;;;;;;9.77;8.10;;;;;;;7.67;55.15;98344.13;10449426;28;20280;-70
2023/03/07 14:56:07;;;;;;;10.98;8.23;;;;;;;7.72;55.14;98357.72;10458229;28;20402;-70
2023/03/07 15:01:14;;;;;;;10.90;7.28;;;;;;;7.55;55.05;98358.53;10460865;28;20086;-70
2023/03/07 15:06:22;;;;;;;8.75;7.28;;;;;;;7.62;55.40;98359.59;10466098;28;20054;-72
2023/03/07 15:11:33;;;;;;;8.68;7.68;;;;;;;7.69;54.95;98355.38;10463174;28;20638;-71
2023/03/07 15:16:54;;;;;;;6.25;5.50;;;;;;;7.67;55.22;98360.00;10490781;28;20052;-68
2023/03/07 15:22:00;;;;;;;8.25;5.57;;;;;;;7.66;54.99;98350.38;10487028;28;20172;-68
2023/03/07 15:27:03;;;;;;;7.93;5.82;;;;;;;7.58;55.20;98353.78;10487441;28;20052;-69
2023/03/07 15:32:06;;;;;;;7.50;5.13;;;;;;;7.50;55.43;98340.47;10488503;28;20055;-70
2023/03/07 15:37:22;;;;;;;7.57;5.05;;;;;;;7.56;55.64;98334.56;10487057;28;20082;-70
2023/03/07 15:42:24;;;;;;;5.57;4.40;;;;;;;7.62;55.31;98333.13;10447077;28;20125;-68
2023/03/07 15:47:28;;;;;;;5.65;4.80;;;;;;;7.56;55.45;98328.44;10445025;28;20051;-72
2023/03/07 15:52:33;;;;;;;9.53;5.80;;;;;;;7.53;55.98;98334.84;10448769;28;20072;-72
2023/03/07 15:57:50;;;;;;;6.65;5.60;;;;;;;7.39;56.25;98333.56;10427787;28;20044;-71
2023/03/07 16:02:51;;;;;;;7.13;6.30;;;;;;;7.38;56.87;98336.38;10457001;28;20091;-69
2023/03/07 16:07:55;;;;;;;6.18;5.47;;;;;;;7.44;57.36;98349.00;10439806;28;20062;-70
2023/03/07 16:12:59;;;;;;;8.02;6.13;;;;;;;7.47;57.43;98334.66;10450182;28;20385;-71
2023/03/07 16:18:00;;;;;;;7.65;5.50;;;;;;;7.47;56.55;98342.59;10465918;28;20044;-72
2023/03/07 16:23:02;;;;;;;7.75;5.38;;;;;;;7.44;56.74;98339.22;10484442;28;20056;-72
2023/03/07 16:28:03;;;;;;;7.32;6.20;;;;;;;7.41;56.97;98342.19;10481507;28;20570;-72
2023/03/07 16:33:05;;;;;;;6.70;6.03;;;;;;;7.42;56.45;98338.56;10456009;28;20056;-71
2023/03/07 16:38:08;;;;;;;6.88;5.57;;;;;;;7.41;57.00;98341.38;10472638;28;20662;-69
2023/03/07 16:43:26;;;;;;;6.82;6.13;;;;;;;7.30;57.22;98347.72;10474445;28;20079;-69
2023/03/07 16:48:28;;;;;;;8.85;5.97;;;;;;;7.21;57.83;98348.59;10436457;28;20055;-70
2023/03/07 16:53:30;;;;;;;7.38;6.47;;;;;;;7.13;58.50;98353.78;10468648;28;20343;-69
2023/03/07 16:58:33;;;;;;;8.63;7.57;;;;;;;7.04;59.11;98351.06;10445999;28;20060;-69
2023/03/07 17:03:35;;;;;;;8.77;7.80;;;;;;;7.07;59.42;98353.41;10431100;28;20048;-70
2023/03/07 17:08:36;;;;;;;9.48;8.30;;;;;;;7.07;59.50;98358.72;10446846;28;20049;-71
2023/03/07 17:13:38;;;;;;;10.35;8.18;;;;;;;7.00;59.80;98349.69;10476968;28;20056;-73
2023/03/07 17:18:40;;;;;;;8.88;7.43;;;;;;;6.93;60.38;98361.00;10451174;28;20495;-70
2023/03/07 17:23:43;;;;;;;9.30;8.32;;;;;;;6.96;60.69;98368.66;10428035;28;20130;-70
2023/03/07 17:28:45;;;;;;;9.82;8.60;;;;;;;6.97;60.37;98379.09;10446790;28;20660;-70
2023/03/07 17:33:48;;;;;;;10.50;8.48;;;;;;;6.89;60.34;98368.38;10446847;28;20060;-71
2023/03/07 17:38:49;;;;;;;11.48;8.55;;;;;;;6.87;60.07;98370.34;10443875;28;20068;-70
2023/03/07 17:43:51;;;;;;;9.68;8.55;;;;;;;6.86;60.35;98377.47;10447172;28;20052;-72
2023/03/07 17:48:52;;;;;;;9.82;8.63;;;;;;;6.83;60.05;98382.19;10422299;28;20056;-73
2023/03/07 17:53:54;;;;;;;9.43;7.40;;;;;;;6.83;60.19;98388.34;10451297;28;20056;-76
2023/03/07 17:59:00;;;;;;;12.95;10.07;;;;;;;6.90;59.75;98388.56;10471253;28;20052;-74
2023/03/07 18:04:05;;;;;;;12.68;8.82;;;;;;;6.87;59.90;98391.50;10488038;28;20104;-75
2023/03/07 18:09:06;;;;;;;9.77;7.97;;;;;;;6.76;59.69;98386.44;10453904;28;20261;-73
2023/03/07 18:14:08;;;;;;;11.40;8.70;;;;;;;6.84;59.64;98394.44;10458606;28;20060;-76
2023/03/07 18:19:11;;;;;;;11.10;8.80;;;;;;;6.69;59.94;98386.16;10437223;28;20049;-77
2023/03/07 18:24:28;;;;;;;10.88;8.93;;;;;;;6.73;59.41;98401.59;10458723;28;20485;-74
2023/03/07 18:29:30;;;;;;;11.23;7.93;;;;;;;6.70;59.77;98391.28;10446252;28;20501;-77
2023/03/07 18:34:32;;;;;;;12.52;8.30;;;;;;;6.76;59.56;98392.53;10455256;28;20044;-73
2023/03/07 18:39:34;;;;;;;9.25;7.47;;;;;;;6.78;59.08;98389.75;10464354;28;20091;-77
2023/03/07 18:44:40;;;;;;;11.52;7.78;;;;;;;6.76;58.95;98394.34;10424008;28;20068;-74
2023/03/07 18:49:41;;;;;;;9.77;7.47;;;;;;;6.71;58.93;98392.97;10459722;28;20048;-69
2023/03/07 18:54:43;;;;;;;8.43;7.40;;;;;;;6.71;58.49;98418.56;10454081;28;20059;-70
2023/03/07 18:59:45;;;;;;;11.30;8.40;;;;;;;6.72;58.58;98410.50;10462797;28;20485;-70
2023/03/07 19:04:48;;;;;;;11.65;9.27;;;;;;;6.81;58.26;98414.06;10457077;28;20285;-70
2023/03/07 19:09:52;;;;;;;10.95;7.85;;;;;;;6.86;58.46;98421.56;10456483;28;20129;-70
2023/03/07 19:14:53;;;;;;;9.23;8.23;;;;;;;6.80;57.88;98423.00;10446220;28;20525;-68
2023/03/07 19:19:58;;;;;;;10.60;8.50;;;;;;;6.84;57.77;98429.66;10451223;28;20044;-70
2023/03/07 19:24:59;;;;;;;10.65;7.95;;;;;;;6.86;58.03;98416.28;10449205;28;20056;-71
2023/03/07 19:30:01;;;;;;;9.93;7.95;;;;;;;6.86;58.13;98417.13;10451672;28;20139;-68
2023/03/07 19:35:03;;;;;;;9.05;8.15;;;;;;;6.77;58.57;98419.81;10451885;28;20059;-70
2023/03/07 19:40:07;;;;;;;10.27;9.02;;;;;;;6.82;58.46;98428.97;10452238;28;20057;-71
2023/03/07 19:45:10;;;;;;;11.82;9.57;;;;;;;6.85;57.94;98435.81;10456689;28;20048;-69
2023/03/07 19:50:11;;;;;;;9.98;8.38;;;;;;;6.85;58.08;98435.81;10454128;28;20469;-68
2023/03/07 19:55:13;;;;;;;9.98;8.68;;;;;;;6.92;58.41;98436.91;10455128;28;20060;-70
2023/03/07 20:00:15;;;;;;;9.70;8.60;;;;;;;6.86;58.27;98442.75;10446525;28;20518;-71
2023/03/07 20:05:16;;;;;;;12.57;9.57;;;;;;;6.87;58.88;98457.63;10453520;28;20056;-70
2023/03/07 20:10:18;;;;;;;10.88;9.32;;;;;;;6.91;59.30;98469.59;10449519;28;20040;-72
2023/03/07 20:15:20;;;;;;;11.77;9.27;;;;;;;7.00;59.73;98486.44;10452906;28;20131;-73
2023/03/07 20:20:22;;;;;;;11.73;9.63;;;;;;;6.86;63.58;98511.50;10458445;28;20044;-72
2023/03/07 20:25:28;;;;;;;6.57;5.63;;;;;;;6.92;64.53;98524.19;10451891;28;20139;-68
2023/03/07 20:30:30;;;;;;;5.68;4.82;;;;;;;6.90;65.39;98539.34;10455066;28;20668;-68
2023/03/07 20:35:31;;;;;;;5.95;5.45;;;;;;;6.86;66.27;98533.53;10452990;28;20044;-70
2023/03/07 20:40:33;;;;;;;5.85;5.35;;;;;;;6.80;66.71;98534.09;10462757;28;20058;-69
2023/03/07 20:45:35;;;;;;;5.53;5.03;;;;;;;6.87;66.07;98539.63;10491026;28;20048;-67
2023/03/07 20:50:36;;;;;;;4.45;4.05;;;;;;;6.79;65.77;98545.63;10500849;28;20056;-74
2023/03/07 20:55:38;;;;;;;4.57;4.18;;;;;;;6.43;67.32;98553.31;10469633;28;20144;-69
2023/03/07 21:00:40;;;;;;;3.80;3.45;;;;;;;6.47;67.38;98559.13;10436779;28;20052;-68
2023/03/07 21:05:41;;;;;;;6.13;5.47;;;;;;;6.39;67.48;98556.38;10487501;28;20135;-69
2023/03/07 21:10:43;;;;;;;3.75;3.45;;;;;;;6.26;67.83;98562.75;10452176;28;20159;-69
2023/03/07 21:15:51;;;;;;;3.30;2.58;;;;;;;6.46;68.18;98576.00;10407561;28;20051;-67
2023/03/07 21:20:53;;;;;;;3.50;3.20;;;;;;;6.40;68.24;98576.53;10455269;28;20060;-69
2023/03/07 21:26:02;;;;;;;3.40;2.50;;;;;;;6.30;69.23;98587.91;10467387;28;20101;-69
2023/03/07 21:31:19;;;;;;;2.42;2.15;;;;;;;6.32;69.08;98599.19;10447894;28;20253;-69
2023/03/07 21:36:21;;;;;;;2.95;2.67;;;;;;;5.97;70.87;98603.13;10450783;28;20125;-69
2023/03/07 21:41:24;;;;;;;2.92;2.58;;;;;;;6.12;71.71;98592.19;10454812;28;20060;-69
2023/03/07 21:46:26;;;;;;;2.13;1.90;;;;;;;6.08;71.56;98601.38;10453637;28;20057;-71
2023/03/07 21:51:28;;;;;;;1.98;1.63;;;;;;;6.11;71.53;98603.72;10455030;28;20063;-71
2023/03/07 21:56:29;;;;;;;2.67;2.22;;;;;;;6.15;71.23;98613.06;10452175;28;20619;-72
2023/03/07 22:01:30;;;;;;;3.17;2.58;;;;;;;6.15;71.95;98631.56;10458223;28;20040;-70
2023/03/07 22:06:32;;;;;;;5.30;3.50;;;;;;;6.27;71.76;98635.75;10454235;28;20048;-70
2023/03/07 22:11:33;;;;;;;2.92;2.05;;;;;;;6.17;70.73;98648.09;10448807;28;22418;-70
2023/03/07 22:16:35;;;;;;;2.33;1.83;;;;;;;6.12;71.86;98645.88;10450883;28;20335;-71
2023/03/07 22:21:36;;;;;;;2.33;1.75;;;;;;;5.93;72.72;98641.34;10451331;28;20060;-70
2023/03/07 22:26:38;;;;;;;1.20;0.95;;;;;;;5.85;72.95;98643.78;10458802;28;20388;-68
2023/03/07 22:31:39;;;;;;;1.55;1.27;;;;;;;5.88;72.99;98638.25;10458232;28;20608;-70
2023/03/07 22:36:40;;;;;;;2.08;1.52;;;;;;;5.80;72.37;98641.56;10457454;28;20179;-69
2023/03/07 22:41:42;;;;;;;2.05;1.85;;;;;;;5.87;73.46;98652.44;10454374;28;20056;-71
2023/03/07 22:46:44;;;;;;;2.03;1.77;;;;;;;5.86;73.73;98666.59;10440114;28;20540;-70
2023/03/07 22:51:45;;;;;;;2.38;1.90;;;;;;;5.84;73.58;98660.63;10452833;28;20396;-71
2023/03/07 22:56:47;;;;;;;1.90;1.70;;;;;;;5.85;73.52;98664.91;10451290;28;20058;-71
2023/03/07 23:01:49;;;;;;;2.08;1.88;;;;;;;5.73;73.82;98656.25;10440153;28;20048;-66
2023/03/07 23:06:50;;;;;;;1.92;1.73;;;;;;;5.79;73.53;98660.19;10458316;28;20064;-69
2023/03/07 23:11:53;;;;;;;2.00;1.67;;;;;;;5.77;74.75;98670.03;10449376;28;20181;-69
2023/03/07 23:16:55;;;;;;;1.70;1.42;;;;;;;5.75;73.44;98674.59;10445383;28;20485;-70
2023/03/07 23:21:56;;;;;;;2.33;2.13;;;;;;;5.76;73.09;98671.00;10451636;28;20581;-71
2023/03/07 23:26:57;;;;;;;1.65;1.55;;;;;;;5.68;74.22;98670.84;10449370;28;20059;-70
2023/03/07 23:32:02;;;;;;;1.60;1.50;;;;;;;5.70;73.69;98666.25;10450774;28;20607;-70
2023/03/07 23:37:04;;;;;;;1.55;1.30;;;;;;;5.64;73.80;98663.19;10451877;28;20052;-71
2023/03/07 23:42:05;;;;;;;2.05;1.58;;;;;;;5.64;74.29;98663.19;10462440;28;20098;-70
2023/03/07 23:47:07;;;;;;;1.23;1.13;;;;;;;5.68;73.74;98657.63;10449934;28;20057;-71